Ona, Florida
Current Conditions -  °F | °C
As of 5:35 AM on Saturday 22 Nov 2014 (Local Time) from KBOW Reporting Station
Drizzle Drizzle  
Wind Chill: 64°   Ceiling: 3600
Heat Index: 64°   Visibility: 9mi
Dew Point: 63°   Wind: 7mph
Humidity: 94%   Direction: 50°NE
Pressure: 30.23"   Gusts: NA
Location:  27.48°N, 81.92°W
Report Text: KBOW 221035Z AUTO 05006KT 9SM -DZ SCT022 BKN036 OVC060 18/17 A3023 RMK AO2
Loading
Personal Weather Stations






























Interactive Weather Map New forecast layout! Learn more

10-Day Weather Forecast

Advertisements
Track Severe Weather on mobile